Time;durP1;ratioP1;P1;durP2;ratioP2;P2;SDS_P1;SDS_P2;PMS_P1;PMS_P2;Temp;Humidity;BMP_temperature;BMP_pressure;BME280_temperature;BME280_humidity;BME280_pressure;Samples;Min_cycle;Max_cycle;Signal;HPM_P1;HPM_P2
2023/06/18 00:00:08;;;;;;;19.80;14.53;;;;;;;15.87;100.00;94821.72;5000778;28;20221;-79
2023/06/18 00:02:35;;;;;;;22.20;15.77;;;;;;;15.83;100.00;94837.25;5025742;28;20298;-81
2023/06/18 00:05:00;;;;;;;20.80;15.80;;;;;;;15.85;100.00;94834.34;5023855;28;20267;-79
2023/06/18 00:07:26;;;;;;;22.17;15.27;;;;;;;15.90;100.00;94829.19;5028231;28;20233;-81
2023/06/18 00:09:51;;;;;;;23.57;15.80;;;;;;;15.84;100.00;94817.72;5029014;28;20236;-80
2023/06/18 00:12:18;;;;;;;25.00;16.33;;;;;;;15.89;100.00;94819.66;5042058;28;20238;-80
2023/06/18 00:14:43;;;;;;;23.37;15.63;;;;;;;15.89;100.00;94822.28;5018913;28;20248;-81
2023/06/18 00:17:09;;;;;;;22.90;16.30;;;;;;;15.75;100.00;94821.75;5009607;28;20233;-82
2023/06/18 00:19:35;;;;;;;22.27;15.90;;;;;;;15.81;100.00;94825.31;5024941;28;20239;-81
2023/06/18 00:22:01;;;;;;;25.57;17.23;;;;;;;15.87;100.00;94827.81;5025177;28;20615;-80
2023/06/18 00:24:27;;;;;;;23.97;16.47;;;;;;;15.84;100.00;94830.09;5022500;28;20737;-82
2023/06/18 00:26:53;;;;;;;24.13;17.30;;;;;;;15.83;100.00;94821.41;5021969;28;20298;-80
2023/06/18 00:29:18;;;;;;;22.47;16.50;;;;;;;15.83;100.00;94831.97;5018550;28;20257;-80
2023/06/18 00:31:44;;;;;;;23.63;16.87;;;;;;;15.88;100.00;94829.41;5011781;28;20237;-81
2023/06/18 00:34:14;;;;;;;25.97;17.57;;;;;;;15.85;100.00;94821.16;5017310;28;20236;-82
2023/06/18 00:36:43;;;;;;;22.73;17.00;;;;;;;15.85;100.00;94831.72;5021389;28;20273;-81
2023/06/18 00:39:11;;;;;;;26.10;17.60;;;;;;;15.77;100.00;94822.31;5021409;28;20962;-82
2023/06/18 00:41:40;;;;;;;26.17;18.17;;;;;;;15.89;100.00;94830.19;5001877;28;20274;-82
2023/06/18 00:44:08;;;;;;;26.67;18.57;;;;;;;15.92;100.00;94827.09;5018024;28;20237;-81
2023/06/18 00:46:36;;;;;;;28.23;18.23;;;;;;;15.92;100.00;94825.28;5026025;28;20237;-82
2023/06/18 00:49:02;;;;;;;26.87;18.30;;;;;;;15.94;100.00;94825.03;5027136;28;20383;-80
2023/06/18 00:51:28;;;;;;;25.17;18.00;;;;;;;15.94;100.00;94822.38;5028160;28;20675;-81
2023/06/18 00:53:56;;;;;;;26.73;18.93;;;;;;;15.95;100.00;94821.38;5042488;28;20786;-81
2023/06/18 00:56:25;;;;;;;26.80;18.50;;;;;;;15.87;100.00;94827.81;5027258;28;20713;-82
2023/06/18 00:58:51;;;;;;;29.70;19.07;;;;;;;15.88;100.00;94821.47;5025947;28;20305;-81
2023/06/18 01:01:17;;;;;;;26.47;18.43;;;;;;;15.89;100.00;94820.44;5029532;28;20268;-82
2023/06/18 01:03:47;;;;;;;25.97;18.70;;;;;;;15.93;100.00;94820.81;5028842;28;20838;-82
2023/06/18 01:06:17;;;;;;;29.03;19.57;;;;;;;15.94;100.00;94817.09;5045830;28;20327;-81
2023/06/18 01:08:43;;;;;;;28.13;19.43;;;;;;;15.88;100.00;94824.13;5027663;28;20240;-82
2023/06/18 01:11:08;;;;;;;27.80;19.73;;;;;;;15.87;100.00;94811.97;5021375;28;20262;-81
2023/06/18 01:13:36;;;;;;;28.33;19.70;;;;;;;15.82;100.00;94819.78;5030583;28;20269;-81
2023/06/18 01:16:05;;;;;;;30.90;20.07;;;;;;;15.92;100.00;94820.00;5012032;28;20236;-81
2023/06/18 01:18:39;;;;;;;27.73;19.70;;;;;;;15.88;100.00;94816.19;5029541;28;20237;-83
2023/06/18 01:21:06;;;;;;;28.60;19.60;;;;;;;15.88;100.00;94818.84;5029710;28;20398;-80
2023/06/18 01:23:45;;;;;;;29.03;19.77;;;;;;;15.89;100.00;94822.28;5033783;28;20274;-79
2023/06/18 01:26:10;;;;;;;29.87;20.10;;;;;;;15.88;100.00;94824.13;5047619;28;20232;-81
2023/06/18 01:28:36;;;;;;;27.97;19.67;;;;;;;15.87;100.00;94822.53;5045897;28;20316;-81
2023/06/18 01:31:02;;;;;;;27.43;20.13;;;;;;;15.91;100.00;94828.94;5045301;28;20237;-79
2023/06/18 01:33:28;;;;;;;27.17;19.40;;;;;;;15.93;100.00;94824.22;5021475;28;20236;-81
2023/06/18 01:35:54;;;;;;;30.20;19.90;;;;;;;15.87;100.00;94829.63;5008419;28;20683;-80
2023/06/18 01:38:48;;;;;;;28.13;19.77;;;;;;;15.89;100.00;94830.19;5027166;28;20673;-81
2023/06/18 01:41:18;;;;;;;31.73;20.40;;;;;;;15.87;100.00;94821.72;5029068;28;20251;-79
2023/06/18 01:43:47;;;;;;;29.13;20.57;;;;;;;15.90;100.00;94822.06;5027041;28;20237;-79
2023/06/18 01:46:14;;;;;;;30.93;20.50;;;;;;;15.85;100.00;94823.81;5058270;28;20237;-80
2023/06/18 01:49:04;;;;;;;29.23;20.10;;;;;;;15.80;100.00;94827.13;5030211;28;20237;-78
2023/06/18 01:51:30;;;;;;;32.53;20.63;;;;;;;15.81;100.00;94820.81;5027166;28;20313;-81
2023/06/18 01:53:56;;;;;;;30.67;20.40;;;;;;;15.77;100.00;94830.25;5008079;28;20261;-81
2023/06/18 01:56:23;;;;;;;31.80;20.73;;;;;;;15.84;100.00;94830.09;5023117;28;20711;-79
2023/06/18 01:58:50;;;;;;;28.93;20.37;;;;;;;15.83;100.00;94824.03;5022505;28;20319;-80
2023/06/18 02:01:15;;;;;;;30.87;20.90;;;;;;;15.84;100.00;94830.91;5040300;28;20245;-81
2023/06/18 02:03:41;;;;;;;30.33;20.67;;;;;;;15.87;100.00;94833.09;5002285;28;20276;-80
2023/06/18 02:06:07;;;;;;;28.93;20.17;;;;;;;15.85;100.00;94840.44;5014020;28;20312;-80
2023/06/18 02:08:33;;;;;;;27.87;20.50;;;;;;;15.77;100.00;94830.25;5041526;28;20395;-78
2023/06/18 02:10:59;;;;;;;29.93;20.90;;;;;;;15.74;100.00;94832.56;5056352;28;20224;-79
2023/06/18 02:13:25;;;;;;;31.10;21.17;;;;;;;15.80;100.00;94834.25;5028654;28;20235;-81
2023/06/18 02:15:51;;;;;;;32.10;20.77;;;;;;;15.84;100.00;94833.53;5030601;28;20233;-80
2023/06/18 02:18:17;;;;;;;31.93;20.97;;;;;;;15.85;100.00;94826.44;5027874;28;20233;-79
2023/06/18 02:20:44;;;;;;;30.97;20.83;;;;;;;15.89;100.00;94833.66;5045275;28;20425;-80
2023/06/18 02:23:09;;;;;;;30.50;20.90;;;;;;;15.84;100.00;94838.00;5042008;28;20236;-79
2023/06/18 02:25:35;;;;;;;31.57;20.83;;;;;;;15.87;100.00;94838.38;5026456;28;20233;-81
2023/06/18 02:28:01;;;;;;;31.83;21.50;;;;;;;15.83;100.00;94831.97;5030877;28;20304;-81
2023/06/18 02:30:29;;;;;;;29.43;21.03;;;;;;;15.91;100.00;94834.22;5025348;28;20260;-81
2023/06/18 02:32:58;;;;;;;33.87;21.80;;;;;;;15.93;100.00;94831.34;5025417;28;20703;-80
2023/06/18 02:35:26;;;;;;;31.27;21.17;;;;;;;15.92;100.00;94835.84;5029438;28;20242;-81
2023/06/18 02:37:52;;;;;;;33.20;21.77;;;;;;;15.93;100.00;94834.00;5028025;28;20320;-81
2023/06/18 02:40:18;;;;;;;30.47;21.17;;;;;;;15.88;100.00;94845.22;5024159;28;20239;-82
2023/06/18 02:42:52;;;;;;;31.73;21.60;;;;;;;15.87;100.00;94841.00;5006982;28;20294;-82
2023/06/18 02:45:19;;;;;;;33.67;22.27;;;;;;;15.83;100.00;94833.78;5024935;28;20246;-81
2023/06/18 02:47:45;;;;;;;30.10;21.70;;;;;;;15.90;100.00;94848.47;5026068;28;20286;-81
2023/06/18 02:50:11;;;;;;;32.37;21.77;;;;;;;15.93;100.00;94852.47;5023829;28;20233;-81
2023/06/18 02:52:38;;;;;;;35.03;21.83;;;;;;;15.91;100.00;94843.97;5026568;28;20689;-81
2023/06/18 02:55:06;;;;;;;30.17;21.03;;;;;;;15.93;100.00;94847.97;5024047;28;20248;-82
2023/06/18 02:57:31;;;;;;;31.37;21.90;;;;;;;15.87;100.00;94850.75;5023780;28;20237;-82
2023/06/18 02:59:57;;;;;;;30.63;21.63;;;;;;;15.85;100.00;94844.91;5022234;28;20302;-82
2023/06/18 03:02:23;;;;;;;33.93;21.77;;;;;;;15.87;100.00;94848.13;5019326;28;20241;-80
2023/06/18 03:04:49;;;;;;;33.20;22.43;;;;;;;15.80;100.00;94853.53;5010271;28;20275;-81
2023/06/18 03:07:20;;;;;;;31.13;21.63;;;;;;;15.75;100.00;94845.50;4982920;28;20249;-82
2023/06/18 03:09:45;;;;;;;32.23;21.43;;;;;;;15.77;100.00;94842.63;5024009;28;20712;-80
2023/06/18 03:13:00;;;;;;;31.67;21.80;;;;;;;15.87;100.00;94856.84;5010940;28;20229;-81
2023/06/18 03:15:26;;;;;;;32.13;21.57;;;;;;;15.93;100.00;94855.13;5038923;28;20718;-80
2023/06/18 03:17:51;;;;;;;34.70;21.43;;;;;;;15.93;100.00;94853.25;5043371;28;20238;-81
2023/06/18 03:20:18;;;;;;;30.43;21.10;;;;;;;15.88;100.00;94855.78;5043186;28;20236;-80
2023/06/18 03:22:43;;;;;;;32.17;21.23;;;;;;;15.94;100.00;94849.59;5023628;28;20224;-81
2023/06/18 03:25:09;;;;;;;33.40;22.27;;;;;;;15.98;100.00;94842.81;5029667;28;20232;-80
2023/06/18 03:27:34;;;;;;;31.87;21.27;;;;;;;15.90;100.00;94852.94;5028698;28;20304;-81
2023/06/18 03:30:03;;;;;;;33.77;21.40;;;;;;;15.86;100.00;94857.06;5025631;28;20780;-79
2023/06/18 03:32:29;;;;;;;30.63;21.10;;;;;;;15.93;100.00;94852.47;5021908;28;20216;-80
2023/06/18 03:34:54;;;;;;;33.07;21.70;;;;;;;15.97;100.00;94864.16;5006552;28;20297;-76
2023/06/18 03:37:20;;;;;;;31.57;21.07;;;;;;;16.01;100.00;94860.81;5037401;28;20341;-79
2023/06/18 03:39:46;;;;;;;28.60;20.83;;;;;;;16.00;100.00;94866.34;5008464;28;20224;-81
2023/06/18 03:42:15;;;;;;;32.43;21.53;;;;;;;15.88;100.00;94862.94;5032974;28;20261;-81
2023/06/18 03:44:40;;;;;;;31.47;20.80;;;;;;;16.00;100.00;94864.47;5006858;28;20221;-79
2023/06/18 03:47:06;;;;;;;29.00;21.40;;;;;;;15.96;100.00;94865.19;5018685;28;20222;-83
2023/06/18 03:49:32;;;;;;;31.63;21.13;;;;;;;15.97;100.00;94858.88;5011713;28;20230;-81
2023/06/18 03:51:57;;;;;;;31.27;21.23;;;;;;;15.99;100.00;94868.19;5008977;28;20732;-82
2023/06/18 03:54:26;;;;;;;29.73;21.30;;;;;;;16.00;100.00;94859.19;5007580;28;20221;-81
2023/06/18 03:56:52;;;;;;;33.93;21.97;;;;;;;16.04;100.00;94867.47;5018042;28;20226;-82
2023/06/18 03:59:17;;;;;;;31.67;21.63;;;;;;;15.93;100.00;94863.03;5005098;28;20237;-81
2023/06/18 04:01:43;;;;;;;31.77;21.37;;;;;;;15.99;100.00;94868.19;5004184;28;20317;-81
2023/06/18 04:04:08;;;;;;;31.50;21.87;;;;;;;15.99;100.00;94862.09;5043153;28;20233;-82
2023/06/18 04:06:34;;;;;;;30.53;21.60;;;;;;;15.94;100.00;94862.78;5006382;28;20237;-82
2023/06/18 04:09:00;;;;;;;34.53;22.13;;;;;;;16.00;100.00;94872.41;4995079;28;20249;-83
2023/06/18 04:11:26;;;;;;;31.40;21.87;;;;;;;16.05;100.00;94871.69;4998844;28;20278;-82
2023/06/18 04:13:52;;;;;;;34.00;22.03;;;;;;;16.02;100.00;94874.81;5005002;28;20237;-83
2023/06/18 04:16:17;;;;;;;31.93;22.53;;;;;;;16.01;100.00;94871.38;5010319;28;20611;-82
2023/06/18 04:18:43;;;;;;;35.87;22.03;;;;;;;16.09;100.00;94876.31;5006003;28;20258;-82
2023/06/18 04:21:08;;;;;;;31.07;21.77;;;;;;;16.14;100.00;94870.31;5024033;28;20287;-82
2023/06/18 04:23:35;;;;;;;30.23;21.47;;;;;;;16.05;100.00;94876.97;5027729;28;20240;-81
2023/06/18 04:26:01;;;;;;;30.37;21.83;;;;;;;16.05;100.00;94875.16;4987094;28;20350;-82
2023/06/18 04:28:27;;;;;;;31.43;22.10;;;;;;;16.01;100.00;94870.56;5001199;28;20234;-83
2023/06/18 04:30:52;;;;;;;33.03;22.10;;;;;;;16.08;100.00;94882.59;5025384;28;20227;-81
2023/06/18 04:33:18;;;;;;;32.23;22.33;;;;;;;16.06;100.00;94882.03;5004016;28;20233;-81
2023/06/18 04:35:46;;;;;;;34.67;23.23;;;;;;;16.19;100.00;94881.75;5047171;28;20269;-81
2023/06/18 04:38:12;;;;;;;33.13;22.70;;;;;;;16.27;100.00;94888.50;5021086;28;20255;-80
2023/06/18 04:40:37;;;;;;;31.93;22.07;;;;;;;16.26;100.00;94892.22;5012261;28;20248;-80
2023/06/18 04:43:03;;;;;;;33.27;21.83;;;;;;;16.22;100.00;94893.69;5006135;28;20295;-81
2023/06/18 04:45:29;;;;;;;32.83;22.33;;;;;;;16.17;100.00;94894.41;4993237;28;20241;-81
2023/06/18 04:47:55;;;;;;;32.67;22.53;;;;;;;16.28;100.00;94891.97;4993657;28;20238;-78
2023/06/18 04:50:22;;;;;;;30.70;21.53;;;;;;;16.33;100.00;94900.00;5030810;28;20229;-82
2023/06/18 04:52:48;;;;;;;34.13;22.40;;;;;;;16.28;100.00;94899.88;5043150;28;20229;-82
2023/06/18 04:55:13;;;;;;;33.10;23.00;;;;;;;16.30;100.00;94895.16;5007346;28;20242;-81
2023/06/18 04:57:40;;;;;;;34.63;22.97;;;;;;;16.36;100.00;94892.38;5020277;28;20290;-81
2023/06/18 05:00:06;;;;;;;34.33;22.30;;;;;;;16.39;100.00;94910.41;5014031;28;20238;-84
2023/06/18 05:02:32;;;;;;;32.83;22.27;;;;;;;16.39;100.00;94917.53;5021647;28;20264;-82
2023/06/18 05:04:58;;;;;;;32.20;22.97;;;;;;;16.42;100.00;94915.22;4999684;28;20384;-83
2023/06/18 05:07:24;;;;;;;34.43;22.63;;;;;;;16.44;100.00;94920.28;5005059;28;20265;-82
2023/06/18 05:09:50;;;;;;;32.87;22.97;;;;;;;16.46;100.00;94920.81;5007383;28;20339;-81
2023/06/18 05:12:15;;;;;;;31.53;22.17;;;;;;;16.39;100.00;94923.63;5019291;28;20244;-82
2023/06/18 05:14:41;;;;;;;34.43;22.47;;;;;;;16.30;100.00;94932.16;5034583;28;20237;-83
2023/06/18 05:17:06;;;;;;;31.47;21.60;;;;;;;16.30;100.00;94930.31;5017146;28;20232;-81
2023/06/18 05:19:32;;;;;;;34.83;22.50;;;;;;;16.31;100.00;94937.19;5022576;28;20249;-82
2023/06/18 05:21:58;;;;;;;33.33;22.00;;;;;;;16.35;100.00;94940.97;5018477;28;20226;-82
2023/06/18 05:24:23;;;;;;;32.60;22.00;;;;;;;16.26;100.00;94933.66;5022891;28;20230;-82
2023/06/18 05:26:49;;;;;;;33.33;22.33;;;;;;;16.45;100.00;94945.66;5019989;28;20221;-82
2023/06/18 05:29:18;;;;;;;31.23;21.90;;;;;;;16.43;100.00;94945.88;5018930;28;20426;-82
2023/06/18 05:31:44;;;;;;;31.60;21.93;;;;;;;16.37;100.00;94948.66;5016537;28;20288;-84
2023/06/18 05:34:09;;;;;;;30.30;21.57;;;;;;;16.46;100.00;94955.19;5004221;28;20630;-82
2023/06/18 05:36:35;;;;;;;30.43;21.70;;;;;;;16.45;100.00;94951.75;5021480;28;20228;-83
2023/06/18 05:39:02;;;;;;;31.10;21.87;;;;;;;16.38;100.00;94960.84;4986316;28;20233;-81
2023/06/18 05:41:28;;;;;;;32.03;20.77;;;;;;;16.43;100.00;94953.03;5024399;28;20276;-83
2023/06/18 05:43:53;;;;;;;29.93;20.80;;;;;;;16.45;100.00;94957.03;5018723;28;20223;-83
2023/06/18 05:46:19;;;;;;;30.43;21.67;;;;;;;16.55;100.00;94957.25;5021304;28;20655;-83
2023/06/18 05:48:45;;;;;;;29.10;21.27;;;;;;;16.60;100.00;94960.00;4991863;28;20246;-82
2023/06/18 05:51:10;;;;;;;31.87;21.43;;;;;;;16.65;100.00;94967.22;5005051;28;20218;-78
2023/06/18 05:53:36;;;;;;;32.17;21.90;;;;;;;16.55;100.00;94959.88;5024023;28;20236;-79
2023/06/18 05:56:02;;;;;;;29.77;21.00;;;;;;;16.58;100.00;94966.53;5055957;28;20301;-78
2023/06/18 05:58:27;;;;;;;33.43;21.13;;;;;;;16.56;100.00;94974.72;5036900;28;20228;-79
2023/06/18 06:01:24;;;;;;;28.93;20.63;;;;;;;16.60;100.00;94983.78;5031672;28;20241;-78
2023/06/18 06:03:50;;;;;;;32.77;21.60;;;;;;;16.58;100.00;94971.81;5034038;28;20252;-78
2023/06/18 06:06:15;;;;;;;30.73;20.87;;;;;;;16.52;100.00;94968.31;5038985;28;20233;-80
2023/06/18 06:08:41;;;;;;;31.13;21.40;;;;;;;16.58;100.00;94972.63;5028962;28;20636;-79
2023/06/18 06:11:07;;;;;;;30.70;20.93;;;;;;;16.71;100.00;94982.13;5030063;28;20286;-79
2023/06/18 06:13:33;;;;;;;31.90;21.90;;;;;;;16.67;100.00;94983.66;5026430;28;20245;-79
2023/06/18 06:16:00;;;;;;;31.90;21.03;;;;;;;16.70;100.00;94988.44;5026144;28;20244;-79
2023/06/18 06:18:26;;;;;;;30.53;21.03;;;;;;;16.70;100.00;94997.19;5021016;28;20735;-79
2023/06/18 06:20:52;;;;;;;29.43;20.20;;;;;;;16.69;100.00;94997.44;5012334;28;20753;-79
2023/06/18 06:23:19;;;;;;;31.33;20.60;;;;;;;16.63;100.00;94993.06;5002213;28;20245;-80
2023/06/18 06:25:50;;;;;;;32.23;21.10;;;;;;;16.74;100.00;94993.03;5023010;28;20283;-82
2023/06/18 06:28:15;;;;;;;32.80;21.33;;;;;;;16.81;100.00;94995.56;5047754;28;20339;-78
2023/06/18 06:30:41;;;;;;;30.00;20.23;;;;;;;16.79;100.00;95010.81;5032558;28;20304;-81
2023/06/18 06:33:06;;;;;;;29.53;20.67;;;;;;;16.82;100.00;95000.59;5019669;28;20237;-80
2023/06/18 06:35:32;;;;;;;27.50;20.17;;;;;;;16.92;100.00;95004.47;5028874;28;20288;-80
2023/06/18 06:37:58;;;;;;;29.00;19.30;;;;;;;16.87;100.00;95007.81;5019537;28;20237;-78
2023/06/18 06:40:24;;;;;;;28.60;19.07;;;;;;;16.97;100.00;95009.84;5025346;28;20739;-79
2023/06/18 06:42:49;;;;;;;26.20;18.93;;;;;;;16.99;100.00;95008.56;5021336;28;20268;-80
2023/06/18 06:45:15;;;;;;;26.80;19.27;;;;;;;16.95;100.00;95014.56;5019355;28;20587;-80
2023/06/18 06:47:41;;;;;;;26.87;19.17;;;;;;;17.11;100.00;95011.16;5043500;28;20296;-80
2023/06/18 06:50:07;;;;;;;28.27;18.77;;;;;;;17.10;100.00;95014.88;5009851;28;20237;-81
2023/06/18 06:52:33;;;;;;;27.27;18.40;;;;;;;17.13;100.00;95017.00;5024451;28;20233;-81
2023/06/18 06:54:58;;;;;;;25.70;18.43;;;;;;;17.15;100.00;95014.94;5023126;28;20256;-79
2023/06/18 06:57:25;;;;;;;23.77;18.07;;;;;;;17.14;100.00;95015.97;5038986;28;20236;-82
2023/06/18 06:59:50;;;;;;;27.60;18.87;;;;;;;17.16;100.00;95021.84;5025971;28;20312;-80
2023/06/18 07:02:16;;;;;;;24.13;17.90;;;;;;;17.09;100.00;95026.47;5020555;28;20264;-80
2023/06/18 07:04:46;;;;;;;26.10;18.33;;;;;;;17.10;100.00;95026.22;5058543;28;20721;-81
2023/06/18 07:07:13;;;;;;;26.73;18.23;;;;;;;17.10;100.00;95033.38;5029589;28;20229;-80
2023/06/18 07:09:38;;;;;;;25.03;18.17;;;;;;;17.21;100.00;95033.31;5019159;28;20241;-81
2023/06/18 07:12:04;;;;;;;27.07;18.17;;;;;;;17.25;100.00;95025.69;5018738;28;20238;-81
2023/06/18 07:14:31;;;;;;;25.60;18.53;;;;;;;17.27;100.00;95031.53;5020381;28;20232;-82
2023/06/18 07:16:58;;;;;;;27.83;18.07;;;;;;;17.26;100.00;95027.31;5023996;28;20229;-81
2023/06/18 07:19:23;;;;;;;24.00;17.50;;;;;;;17.19;100.00;95031.94;5019049;28;20229;-79
2023/06/18 07:21:53;;;;;;;26.10;17.40;;;;;;;17.29;100.00;95038.22;5038227;28;20233;-80
2023/06/18 07:24:19;;;;;;;26.60;17.90;;;;;;;17.28;100.00;95036.63;5039926;28;20248;-81
2023/06/18 07:26:45;;;;;;;24.73;18.00;;;;;;;17.24;100.00;95035.47;5028631;28;20233;-81
2023/06/18 07:29:14;;;;;;;25.17;17.77;;;;;;;17.29;100.00;95030.28;4999687;28;20241;-81
2023/06/18 07:31:40;;;;;;;26.50;17.83;;;;;;;17.31;100.00;95030.84;5017074;28;20236;-81
2023/06/18 07:34:08;;;;;;;26.60;17.97;;;;;;;17.33;100.00;95030.59;5021399;28;20251;-81
2023/06/18 07:36:33;;;;;;;26.10;17.53;;;;;;;17.31;100.00;95027.41;5021564;28;20325;-80
2023/06/18 07:39:02;;;;;;;25.87;18.03;;;;;;;17.35;100.00;95034.63;4978950;28;20308;-81
2023/06/18 07:41:31;;;;;;;25.27;18.20;;;;;;;17.43;100.00;95036.88;5040728;28;20245;-82
2023/06/18 07:43:57;;;;;;;24.13;17.83;;;;;;;17.48;100.00;95038.81;5022185;28;20258;-81
2023/06/18 07:46:23;;;;;;;24.63;17.07;;;;;;;17.42;100.00;95037.13;5002177;28;20259;-79
2023/06/18 07:48:49;;;;;;;26.20;17.73;;;;;;;17.41;100.00;95040.81;5035965;28;20228;-80
2023/06/18 07:51:15;;;;;;;24.93;17.80;;;;;;;17.38;100.00;95042.09;5022999;28;20256;-80
2023/06/18 07:53:41;;;;;;;23.17;16.70;;;;;;;17.40;100.00;95050.59;5023548;28;20232;-81
2023/06/18 07:56:09;;;;;;;26.70;16.57;;;;;;;17.43;100.00;95044.03;5024123;28;20274;-80
2023/06/18 07:58:34;;;;;;;27.50;17.53;;;;;;;17.49;100.00;95048.34;5018276;28;20747;-82
2023/06/18 08:01:00;;;;;;;24.70;16.70;;;;;;;17.52;100.00;95055.03;4994514;28;20226;-81
2023/06/18 08:03:26;;;;;;;21.67;15.97;;;;;;;17.66;100.00;95058.97;5026286;28;20235;-80
2023/06/18 08:05:54;;;;;;;22.93;16.37;;;;;;;17.69;100.00;95061.97;5031889;28;20228;-80
2023/06/18 08:08:23;;;;;;;22.90;16.07;;;;;;;17.48;100.00;95054.69;5016620;28;20236;-81
2023/06/18 08:10:48;;;;;;;24.07;15.60;;;;;;;17.52;100.00;95062.97;5043189;28;20268;-81
2023/06/18 08:13:14;;;;;;;22.67;15.33;;;;;;;17.49;100.00;95069.53;5035839;28;20234;-80
2023/06/18 08:15:40;;;;;;;24.20;15.90;;;;;;;17.56;100.00;95079.97;5023722;28;20320;-79
2023/06/18 08:18:06;;;;;;;20.23;14.93;;;;;;;17.53;100.00;95077.84;5048124;28;20233;-82
2023/06/18 08:20:31;;;;;;;19.10;15.13;;;;;;;17.44;100.00;95072.88;5008988;28;20698;-85
2023/06/18 08:22:57;;;;;;;19.70;14.20;;;;;;;17.38;100.00;95068.56;5008077;28;20225;-83
2023/06/18 08:25:23;;;;;;;20.90;13.80;;;;;;;17.49;100.00;95074.81;5023391;28;20236;-81
2023/06/18 08:27:48;;;;;;;20.80;14.40;;;;;;;17.48;100.00;95078.53;5036544;28;20252;-79
2023/06/18 08:30:14;;;;;;;22.43;14.50;;;;;;;17.50;100.00;95081.72;5007943;28;20241;-80
2023/06/18 08:32:41;;;;;;;20.10;14.40;;;;;;;17.60;100.00;95089.84;5024642;28;20284;-80
2023/06/18 08:35:07;;;;;;;20.13;14.40;;;;;;;17.57;100.00;95090.34;5022569;28;20261;-81
2023/06/18 08:37:35;;;;;;;20.43;14.27;;;;;;;17.71;100.00;95086.34;5006892;28;20246;-82
2023/06/18 08:40:00;;;;;;;20.70;13.70;;;;;;;17.73;100.00;95086.91;5013308;28;20240;-81
2023/06/18 08:42:26;;;;;;;22.80;14.40;;;;;;;17.88;100.00;95089.00;5040092;28;20229;-81
2023/06/18 08:44:53;;;;;;;20.70;14.77;;;;;;;17.88;100.00;95089.81;5021679;28;20750;-80
2023/06/18 08:47:18;;;;;;;21.37;14.13;;;;;;;17.89;100.00;95091.41;5025872;28;20622;-82
2023/06/18 08:49:45;;;;;;;20.60;14.60;;;;;;;17.84;100.00;95093.19;5024077;28;20240;-81
2023/06/18 08:52:10;;;;;;;20.80;13.90;;;;;;;17.98;100.00;95089.97;5002047;28;20241;-81
2023/06/18 08:54:37;;;;;;;18.60;13.67;;;;;;;17.95;100.00;95087.81;5036470;28;20241;-82
2023/06/18 08:57:07;;;;;;;18.90;13.90;;;;;;;17.96;100.00;95107.16;5012222;28;20272;-81
2023/06/18 08:59:33;;;;;;;19.47;13.83;;;;;;;18.04;100.00;95098.81;5039200;28;20228;-83
2023/06/18 09:01:59;;;;;;;19.17;13.70;;;;;;;18.03;100.00;95091.91;5043683;28;20881;-83
2023/06/18 09:04:25;;;;;;;20.47;13.63;;;;;;;18.16;100.00;95096.88;4993405;28;20228;-80
2023/06/18 09:06:56;;;;;;;20.20;14.07;;;;;;;18.22;100.00;95103.88;5018184;28;20228;-80
2023/06/18 09:09:22;;;;;;;19.90;13.87;;;;;;;18.21;100.00;95096.97;5007953;28;20279;-79
2023/06/18 09:11:47;;;;;;;18.40;13.10;;;;;;;18.28;100.00;95105.53;5016904;28;20285;-79
2023/06/18 09:14:16;;;;;;;20.10;13.27;;;;;;;18.32;100.00;95097.91;5039049;28;20600;-80
2023/06/18 09:16:41;;;;;;;18.50;12.73;;;;;;;18.34;100.00;95098.47;5019335;28;20286;-81
2023/06/18 09:19:08;;;;;;;23.87;13.20;;;;;;;18.22;100.00;95095.91;5006663;28;20608;-80
2023/06/18 09:21:40;;;;;;;18.33;12.93;;;;;;;18.15;100.00;95100.56;5028481;28;20287;-81
2023/06/18 09:24:07;;;;;;;18.07;12.53;;;;;;;18.22;100.00;95100.41;5047701;28;20996;-80
2023/06/18 09:26:36;;;;;;;20.97;13.00;;;;;;;18.27;100.00;95103.91;5024792;28;20236;-82
2023/06/18 09:29:03;;;;;;;20.23;13.53;;;;;;;18.38;100.00;95103.03;5022374;28;20697;-79
2023/06/18 09:31:28;;;;;;;20.73;12.97;;;;;;;18.40;100.00;95098.31;5022825;28;20235;-81
2023/06/18 09:33:54;;;;;;;16.93;12.73;;;;;;;18.40;100.00;95098.31;5026203;28;20933;-82
2023/06/18 09:36:20;;;;;;;18.23;12.53;;;;;;;18.36;100.00;95096.38;5035600;28;20504;-80
2023/06/18 09:38:46;;;;;;;16.90;12.80;;;;;;;18.40;100.00;95097.50;5040820;28;20245;-81
2023/06/18 09:41:16;;;;;;;18.43;12.47;;;;;;;18.40;100.00;95102.78;5038639;28;20268;-80
2023/06/18 09:43:43;;;;;;;19.73;12.57;;;;;;;18.40;100.00;95098.31;5014118;28;20768;-79
2023/06/18 09:46:12;;;;;;;19.40;11.93;;;;;;;18.37;100.00;95096.13;5025217;28;20241;-80
2023/06/18 09:48:41;;;;;;;16.20;12.03;;;;;;;18.43;100.00;95095.16;5027834;28;20229;-81
2023/06/18 09:51:07;;;;;;;15.87;11.60;;;;;;;18.41;100.00;95091.16;5020877;28;21006;-81
2023/06/18 09:53:33;;;;;;;16.47;11.60;;;;;;;18.50;100.00;95097.66;5012355;28;20241;-80
2023/06/18 09:56:11;;;;;;;18.77;12.60;;;;;;;18.49;100.00;95102.16;5039442;28;20260;-81
2023/06/18 09:58:46;;;;;;;17.13;12.40;;;;;;;18.48;100.00;95095.28;5002624;28;20988;-78
2023/06/18 10:01:12;;;;;;;16.23;11.60;;;;;;;18.51;100.00;95097.41;5010915;28;20224;-80
2023/06/18 10:03:37;;;;;;;18.50;12.47;;;;;;;18.52;100.00;95096.38;5023611;28;20247;-79
2023/06/18 10:06:17;;;;;;;17.30;12.00;;;;;;;18.64;100.00;95105.03;5018206;28;20241;-81
2023/06/18 10:08:45;;;;;;;16.53;11.83;;;;;;;18.65;100.00;95100.53;5025917;28;20290;-77
2023/06/18 10:11:11;;;;;;;19.83;11.90;;;;;;;18.63;100.00;95095.47;5021266;28;20236;-79
2023/06/18 10:14:13;;;;;;;16.80;11.53;;;;;;;18.73;100.00;95100.91;5028753;28;20238;-81
2023/06/18 10:16:43;;;;;;;15.50;11.27;;;;;;;18.65;100.00;95090.72;5020445;28;20317;-80
2023/06/18 10:19:25;;;;;;;16.60;11.73;;;;;;;18.78;100.00;95089.56;5011120;28;20245;-79
2023/06/18 10:22:03;;;;;;;17.93;11.70;;;;;;;18.84;100.00;95089.38;5044948;28;20237;-82
2023/06/18 10:24:31;;;;;;;17.77;11.70;;;;;;;18.89;100.00;95090.50;5040613;28;20251;-80
2023/06/18 10:26:57;;;;;;;17.40;11.13;;;;;;;18.89;100.00;95090.50;5053106;28;20478;-77
2023/06/18 10:29:23;;;;;;;13.73;11.00;;;;;;;18.89;100.00;95085.97;5059696;28;20230;-80
2023/06/18 10:31:53;;;;;;;15.23;10.80;;;;;;;18.87;100.00;95087.31;5023693;28;20226;-81
2023/06/18 10:34:18;;;;;;;14.60;10.37;;;;;;;18.93;100.00;95091.59;5042251;28;20237;-82
2023/06/18 10:36:55;;;;;;;;;;;;;;;;;;;;;
2023/06/18 10:39:24;;;;;;;14.67;10.27;;;;;;;18.93;100.00;95086.31;5029752;28;20795;-79
2023/06/18 10:41:51;;;;;;;15.93;10.73;;;;;;;18.90;100.00;95081.47;5019660;28;20276;-80
2023/06/18 10:44:33;;;;;;;14.60;10.43;;;;;;;18.92;100.00;95080.19;5011361;28;20300;-82
2023/06/18 10:47:24;;;;;;;14.30;10.40;;;;;;;19.06;100.00;95083.28;5017004;28;20225;-82
2023/06/18 10:50:11;;;;;;;13.63;10.53;;;;;;;19.05;100.00;95076.38;5014611;28;20329;-79
2023/06/18 10:52:41;;;;;;;12.13;9.60;;;;;;;18.94;100.00;95072.00;5038401;28;20233;-82
2023/06/18 10:55:18;;;;;;;15.87;9.80;;;;;;;19.06;100.00;95078.00;5018576;28;20230;-82
2023/06/18 10:57:51;;;;;;;13.40;10.20;;;;;;;19.08;100.00;95067.91;5027731;28;20237;-80
2023/06/18 11:00:21;;;;;;;14.33;10.00;;;;;;;19.15;100.00;95071.19;5014725;28;20237;-79
2023/06/18 11:02:49;;;;;;;14.43;9.73;;;;;;;19.20;100.00;95068.59;5037462;28;20221;-80
2023/06/18 11:05:34;;;;;;;16.03;10.37;;;;;;;19.24;100.00;95072.34;5038405;28;20258;-84
2023/06/18 11:08:10;;;;;;;15.17;9.83;;;;;;;19.25;100.00;95071.31;5046476;28;20967;-79
2023/06/18 11:10:40;;;;;;;12.60;9.47;;;;;;;19.19;100.00;95070.44;4979724;28;20242;-80
2023/06/18 11:13:07;;;;;;;13.63;9.93;;;;;;;19.23;100.00;95071.53;5038193;28;20214;-80